createdAt,value
2024-04-18T00:01:56.826Z,97058.97
2024-04-18T00:04:26.497Z,97064.38
2024-04-18T00:07:02.642Z,97057.97
2024-04-18T00:09:32.202Z,97054.66
2024-04-18T00:12:01.689Z,97053.06
2024-04-18T00:14:50.671Z,97063.06
2024-04-18T00:17:20.222Z,97067.66
2024-04-18T00:19:49.766Z,97066.06
2024-04-18T00:22:35.418Z,97066.06
2024-04-18T00:25:07.692Z,97060.13
2024-04-18T00:27:55.992Z,97065.75
2024-04-18T00:30:46.540Z,97062.53
2024-04-18T00:33:16.058Z,97069.84
2024-04-18T00:35:45.488Z,97069.03
2024-04-18T00:38:15.769Z,97065.53
2024-04-18T00:40:46.843Z,97061.75
2024-04-18T00:43:23.928Z,97065.53
2024-04-18T00:46:00.613Z,97063.94
2024-04-18T00:48:30.898Z,97065.53
2024-04-18T00:51:03.585Z,97070.94
2024-04-18T00:53:33.930Z,97064.75
2024-04-18T00:56:23.339Z,97073.94
2024-04-18T00:58:53.534Z,97067.44
2024-04-18T01:01:27.948Z,97075.53
2024-04-18T01:03:58.447Z,97070.94
2024-04-18T01:06:44.754Z,97071.75
2024-04-18T01:09:17.834Z,97074.72
2024-04-18T01:12:06.389Z,97066.94
2024-04-18T01:14:35.983Z,97070.16
2024-04-18T01:17:09.339Z,97065.53
2024-04-18T01:19:39.671Z,97073.63
2024-04-18T01:22:09.398Z,97074.44
2024-04-18T01:24:38.973Z,97075.53
2024-04-18T01:27:11.245Z,97075.25
2024-04-18T01:29:46.778Z,97074.72
2024-04-18T01:32:37.322Z,97071.53
2024-04-18T01:35:07.826Z,97080.94
2024-04-18T01:37:49.750Z,97078.25
2024-04-18T01:40:19.387Z,97086.34
2024-04-18T01:43:10.500Z,97084.41
2024-04-18T01:45:59.998Z,97088.22
2024-04-18T01:48:29.705Z,97082.81
2024-04-18T01:51:18.432Z,97084.75
2024-04-18T01:53:47.954Z,97085.53
2024-04-18T01:56:20.461Z,97087.44
2024-04-18T01:58:52.659Z,97086.63
2024-04-18T02:01:25.762Z,97089.31
2024-04-18T02:03:55.583Z,97087.72
2024-04-18T02:06:25.185Z,97090.44
2024-04-18T02:08:54.811Z,97092.31
2024-04-18T02:11:43.216Z,97089.63
2024-04-18T02:14:17.107Z,97096.91
2024-04-18T02:16:46.696Z,97096.13
2024-04-18T02:19:32.272Z,97096.13
2024-04-18T02:22:21.659Z,97099.59
2024-04-18T02:25:11.806Z,97099.59
2024-04-18T02:27:45.763Z,97095.31
2024-04-18T02:30:30.588Z,97106.09
2024-04-18T02:33:18.020Z,97106.09
2024-04-18T02:35:48.824Z,97095.41
2024-04-18T02:38:36.923Z,97096.41
2024-04-18T02:41:07.631Z,97099.09
2024-04-18T02:43:55.376Z,97097.50
2024-04-18T02:46:28.616Z,97096.41
2024-04-18T02:49:16.084Z,97100.22
2024-04-18T02:51:59.329Z,97102.91
2024-04-18T02:54:47.339Z,97094.81
2024-04-18T02:57:16.888Z,97095.59
2024-04-18T02:59:46.431Z,97103.69
2024-04-18T03:02:27.967Z,97089.41
2024-04-18T03:05:18.016Z,97094.50
2024-04-18T03:07:47.618Z,97099.09
2024-04-18T03:10:17.246Z,97097.19
2024-04-18T03:13:01.793Z,97098.28
2024-04-18T03:15:49.997Z,97093.72
2024-04-18T03:18:22.284Z,97096.41
2024-04-18T03:21:08.256Z,97101.81
2024-04-18T03:23:44.372Z,97099.88
2024-04-18T03:26:33.812Z,97103.41
2024-04-18T03:29:03.338Z,97099.88
2024-04-18T03:31:32.851Z,97108.31
2024-04-18T03:34:04.947Z,97108.31
2024-04-18T03:36:53.591Z,97107.19
2024-04-18T03:39:32.286Z,97110.69
2024-04-18T03:42:01.838Z,97108.78
2024-04-18T03:44:51.364Z,97109.91
2024-04-18T03:47:20.860Z,97108.31
2024-04-18T03:50:11.884Z,97115.28
2024-04-18T03:52:41.644Z,97114.78
2024-04-18T03:55:30.002Z,97126.09
2024-04-18T03:57:59.544Z,97121.78
2024-04-18T04:00:48.041Z,97120.16
2024-04-18T04:03:17.948Z,97121.28
2024-04-18T04:05:50.085Z,97128.25
2024-04-18T04:08:19.577Z,97130.19
2024-04-18T04:10:49.119Z,97130.97
2024-04-18T04:13:18.601Z,97133.16
2024-04-18T04:15:48.749Z,97138.28
2024-04-18T04:18:38.014Z,97137.47
2024-04-18T04:21:23.746Z,97141.25
2024-04-18T04:23:54.019Z,97141.25
2024-04-18T04:26:23.956Z,97147.44
2024-04-18T04:28:53.366Z,97150.44
2024-04-18T04:31:22.832Z,97156.63
2024-04-18T04:33:52.408Z,97151.25
2024-04-18T04:36:25.687Z,97158.53
2024-04-18T04:38:56.661Z,97161.22
2024-04-18T04:41:37.361Z,97168.25
2024-04-18T04:44:06.943Z,97170.94
2024-04-18T04:46:52.809Z,97170.41
2024-04-18T04:49:23.213Z,97170.41
2024-04-18T04:52:08.449Z,97178.22
2024-04-18T04:54:45.648Z,97172.00
2024-04-18T04:57:15.799Z,97183.63
2024-04-18T04:59:45.397Z,97184.44
2024-04-18T05:02:15.057Z,97186.31
2024-04-18T05:04:55.153Z,97191.41
2024-04-18T05:07:37.656Z,97185.44
2024-04-18T05:10:25.812Z,97194.03
2024-04-18T05:12:56.014Z,97194.28
2024-04-18T05:15:37.586Z,97196.97
2024-04-18T05:18:10.888Z,97197.25
2024-04-18T05:20:40.598Z,97207.97
2024-04-18T05:23:12.707Z,97207.97
2024-04-18T05:25:42.174Z,97206.91
2024-04-18T05:28:31.645Z,97217.91
2024-04-18T05:31:07.438Z,97209.50
2024-04-18T05:33:37.093Z,97221.91
2024-04-18T05:36:09.289Z,97216.50
2024-04-18T05:38:41.404Z,97218.72
2024-04-18T05:41:10.886Z,97225.19
2024-04-18T05:43:52.392Z,97224.91
2024-04-18T05:46:22.085Z,97232.13
2024-04-18T05:48:51.878Z,97237.53
2024-04-18T05:51:21.511Z,97237.22
2024-04-18T05:54:13.032Z,97243.94
2024-04-18T05:57:02.542Z,97242.84
2024-04-18T05:59:52.821Z,97250.66
2024-04-18T06:02:22.527Z,97252.56
2024-04-18T06:04:52.108Z,97252.47
2024-04-18T06:07:42.408Z,97261.16
2024-04-18T06:10:16.181Z,97271.38
2024-04-18T06:12:45.720Z,97264.38
2024-04-18T06:15:15.366Z,97267.59
2024-04-18T06:17:44.957Z,97263.81
2024-04-18T06:20:14.449Z,97270.81
2024-04-18T06:22:43.889Z,97267.84
2024-04-18T06:25:32.305Z,97273.25
2024-04-18T06:28:01.903Z,97273.53
2024-04-18T06:30:31.372Z,97277.81
2024-04-18T06:33:01.170Z,97278.41
2024-04-18T06:35:30.823Z,97287.56
2024-04-18T06:38:00.265Z,97281.94
2024-04-18T06:40:32.369Z,97288.72
2024-04-18T06:43:02.146Z,97288.22
2024-04-18T06:45:32.067Z,97292.53
2024-04-18T06:48:01.632Z,97290.13
2024-04-18T06:50:31.203Z,97309.28
2024-04-18T06:53:01.035Z,97310.91
2024-04-18T06:55:33.203Z,97317.91
2024-04-18T06:58:02.785Z,97316.00
2024-04-18T07:00:32.311Z,97319.50
2024-04-18T07:03:02.019Z,97316.53
2024-04-18T07:05:50.633Z,97328.63
2024-04-18T07:08:26.234Z,97328.06
2024-04-18T07:11:00.410Z,97331.59
2024-04-18T07:13:32.620Z,97331.59
2024-04-18T07:16:05.262Z,97332.44
2024-04-18T07:18:55.269Z,97336.28
2024-04-18T07:21:25.149Z,97336.66
2024-04-18T07:24:14.981Z,97333.66
2024-04-18T07:26:47.687Z,97341.69
2024-04-18T07:29:17.235Z,97352.44
2024-04-18T07:31:46.720Z,97351.34
2024-04-18T07:34:16.484Z,97349.13
2024-04-18T07:36:49.186Z,97352.66
2024-04-18T07:39:20.096Z,97359.91
2024-04-18T07:41:52.503Z,97359.34
2024-04-18T07:44:24.627Z,97368.47
2024-04-18T07:46:54.616Z,97363.84
2024-04-18T07:49:25.544Z,97367.66
2024-04-18T07:51:57.473Z,97373.25
2024-04-18T07:54:28.308Z,97370.28
2024-04-18T07:57:01.135Z,97375.38
2024-04-18T07:59:31.785Z,97373.50
2024-04-18T08:02:03.572Z,97375.91
2024-04-18T08:04:51.882Z,97381.31
2024-04-18T08:07:26.302Z,97379.69
2024-04-18T08:10:02.963Z,97385.16
2024-04-18T08:12:42.056Z,97383.28
2024-04-18T08:15:17.406Z,97380.78
2024-04-18T08:17:49.855Z,97399.13
2024-04-18T08:20:19.379Z,97398.31
2024-04-18T08:22:51.493Z,97394.25
2024-04-18T08:25:21.038Z,97400.13
2024-04-18T08:27:53.290Z,97402.34
2024-04-18T08:30:22.843Z,97404.91
2024-04-18T08:32:52.459Z,97402.53
2024-04-18T08:35:21.961Z,97406.25
2024-04-18T08:37:51.926Z,97409.72
2024-04-18T08:40:21.605Z,97412.38
2024-04-18T08:42:54.265Z,97409.38
2024-04-18T08:45:27.041Z,97407.97
2024-04-18T08:47:59.206Z,97410.13
2024-04-18T08:50:30.489Z,97405.69
2024-04-18T08:53:01.350Z,97403.56
2024-04-18T08:55:32.723Z,97404.91
2024-04-18T08:58:06.762Z,97407.50
2024-04-18T09:00:36.183Z,97400.41
2024-04-18T09:03:06.509Z,97406.38
2024-04-18T09:05:36.987Z,97406.25
2024-04-18T09:08:10.583Z,97420.66
2024-04-18T09:10:41.040Z,97434.22
2024-04-18T09:13:13.366Z,97430.13
2024-04-18T09:15:43.598Z,97437.69
2024-04-18T09:18:13.223Z,97431.50
2024-04-18T09:20:43.086Z,97443.00
2024-04-18T09:23:12.526Z,97438.56
2024-04-18T09:25:45.448Z,97431.81
2024-04-18T09:28:21.672Z,97439.63
2024-04-18T09:30:57.318Z,97440.78
2024-04-18T09:33:27.975Z,97432.81
2024-04-18T09:36:01.039Z,97437.03
2024-04-18T09:38:34.827Z,97439.69
2024-04-18T09:41:12.204Z,97432.06
2024-04-18T09:43:49.455Z,97429.63
2024-04-18T09:46:20.193Z,97435.44
2024-04-18T09:48:50.490Z,97432.72
2024-04-18T09:51:21.931Z,97430.66
2024-04-18T09:53:51.716Z,97432.91
2024-04-18T09:56:24.970Z,97429.53
2024-04-18T09:58:59.097Z,97430.34
2024-04-18T10:01:30.527Z,97429.56
2024-04-18T10:04:00.062Z,97425.63
2024-04-18T10:06:37.699Z,97423.69
2024-04-18T10:09:09.098Z,97432.28
2024-04-18T10:11:39.815Z,97430.25
2024-04-18T10:14:13.117Z,97430.06
2024-04-18T10:16:47.904Z,97440.63
2024-04-18T10:19:22.285Z,97450.44
2024-04-18T10:22:11.084Z,97450.63
2024-04-18T10:24:50.881Z,97445.56
2024-04-18T10:27:21.385Z,97464.69
2024-04-18T10:29:57.991Z,97459.25
2024-04-18T10:32:29.484Z,97454.66
2024-04-18T10:34:59.990Z,97454.28
2024-04-18T10:37:29.447Z,97452.59
2024-04-18T10:39:59.845Z,97454.72
2024-04-18T10:42:37.933Z,97460.66
2024-04-18T10:45:11.100Z,97453.47
2024-04-18T10:47:41.178Z,97454.91
2024-04-18T10:50:10.669Z,97461.56
2024-04-18T10:52:40.689Z,97462.75
2024-04-18T10:55:10.168Z,97463.16
2024-04-18T10:57:40.286Z,97457.94
2024-04-18T11:00:15.703Z,97470.59
2024-04-18T11:02:45.362Z,97481.78
2024-04-18T11:05:15.294Z,97484.59
2024-04-18T11:07:57.105Z,97494.72
2024-04-18T11:10:27.806Z,97494.81
2024-04-18T11:12:58.248Z,97499.22
2024-04-18T11:15:31.771Z,97503.63
2024-04-18T11:18:03.499Z,97513.91
2024-04-18T11:20:33.802Z,97510.16
2024-04-18T11:23:09.744Z,97505.91
2024-04-18T11:25:44.622Z,97513.03
2024-04-18T11:28:14.302Z,97530.09
2024-04-18T11:30:46.976Z,97516.03
2024-04-18T11:33:21.203Z,97517.72
2024-04-18T11:35:51.127Z,97512.09
2024-04-18T11:38:21.147Z,97511.28
2024-04-18T11:40:50.775Z,97512.41
2024-04-18T11:43:20.347Z,97518.38
2024-04-18T11:45:52.524Z,97517.28
2024-04-18T11:48:22.246Z,97518.69
2024-04-18T11:50:51.824Z,97516.25
2024-04-18T11:53:21.320Z,97525.50
2024-04-18T11:55:50.944Z,97526.88
2024-04-18T11:58:29.565Z,97531.78
2024-04-18T12:01:01.927Z,97520.94
2024-04-18T12:03:42.663Z,97521.25
2024-04-18T12:06:31.330Z,97525.06
2024-04-18T12:09:00.898Z,97525.06
2024-04-18T12:11:31.330Z,97521.53
2024-04-18T12:14:22.211Z,97514.03
2024-04-18T12:17:00.654Z,97516.72
2024-04-18T12:19:45.417Z,97513.75
2024-04-18T12:22:33.593Z,97523.81
2024-04-18T12:25:17.181Z,97520.69
2024-04-18T12:27:50.840Z,97525.34
2024-04-18T12:30:34.156Z,97534.88
2024-04-18T12:33:24.915Z,97533.81
2024-04-18T12:35:55.627Z,97540.91
2024-04-18T12:38:25.133Z,97532.78
2024-04-18T12:41:03.892Z,97531.47
2024-04-18T12:43:35.236Z,97537.44
2024-04-18T12:46:11.596Z,97531.00
2024-04-18T12:48:57.752Z,97530.50
2024-04-18T12:51:27.827Z,97526.75
2024-04-18T12:53:57.691Z,97528.06
2024-04-18T12:56:50.310Z,97530.22
2024-04-18T12:59:26.255Z,97530.69
2024-04-18T13:01:55.858Z,97528.84
2024-04-18T13:04:28.111Z,97528.84
2024-04-18T13:06:58.527Z,97523.69
2024-04-18T13:09:34.101Z,97522.13
2024-04-18T13:12:04.738Z,97529.75
2024-04-18T13:14:53.096Z,97519.81
2024-04-18T13:17:22.915Z,97523.91
2024-04-18T13:19:55.121Z,97526.06
2024-04-18T13:22:24.660Z,97524.47
2024-04-18T13:24:54.345Z,97522.88
2024-04-18T13:27:32.664Z,97524.75
2024-04-18T13:30:02.678Z,97525.03
2024-04-18T13:32:36.740Z,97531.25
2024-04-18T13:35:09.425Z,97527.25
2024-04-18T13:37:39.014Z,97520.03
2024-04-18T13:40:20.591Z,97518.63
2024-04-18T13:43:02.490Z,97509.22
2024-04-18T13:45:33.478Z,97516.41
2024-04-18T13:48:05.541Z,97514.53
2024-04-18T13:50:54.308Z,97513.94
2024-04-18T13:53:23.737Z,97511.72
2024-04-18T13:55:53.441Z,97516.53
2024-04-18T13:58:24.079Z,97509.13
2024-04-18T14:01:00.677Z,97509.69
2024-04-18T14:03:32.388Z,97510.28
2024-04-18T14:06:10.932Z,97502.09
2024-04-18T14:08:41.885Z,97500.59
2024-04-18T14:11:30.269Z,97501.31
2024-04-18T14:14:10.471Z,97504.34
2024-04-18T14:17:18.933Z,97510.38
2024-04-18T14:20:07.625Z,97509.63
2024-04-18T14:22:53.934Z,97508.53
2024-04-18T14:25:23.576Z,97523.22
2024-04-18T14:28:20.690Z,97516.97
2024-04-18T14:31:16.105Z,97530.34
2024-04-18T14:33:49.031Z,97537.66
2024-04-18T14:36:18.641Z,97540.06
2024-04-18T14:38:50.943Z,97544.31
2024-04-18T14:41:20.393Z,97539.19
2024-04-18T14:43:57.649Z,97544.00
2024-04-18T14:46:29.123Z,97551.13
2024-04-18T14:49:18.690Z,97546.50
2024-04-18T14:51:57.337Z,97557.75
2024-04-18T14:54:32.616Z,97554.03
2024-04-18T14:57:02.360Z,97564.16
2024-04-18T14:59:40.848Z,97568.59
2024-04-18T15:02:10.314Z,97566.84
2024-04-18T15:04:59.857Z,97574.16
2024-04-18T15:07:29.551Z,97569.03
2024-04-18T15:10:02.246Z,97563.75
2024-04-18T15:12:52.181Z,97572.19
2024-04-18T15:15:26.038Z,97567.41
2024-04-18T15:17:55.559Z,97570.41
2024-04-18T15:20:25.079Z,97574.59
2024-04-18T15:23:12.822Z,97573.00
2024-04-18T15:25:45.025Z,97569.78
2024-04-18T15:28:14.476Z,97572.81
2024-04-18T15:30:44.488Z,97574.59
2024-04-18T15:33:23.429Z,97569.69
2024-04-18T15:35:53.489Z,97576.72
2024-04-18T15:38:22.952Z,97583.97
2024-04-18T15:41:13.926Z,97588.16
2024-04-18T15:43:43.390Z,97587.44
2024-04-18T15:46:33.167Z,97593.28
2024-04-18T15:49:09.579Z,97590.66
2024-04-18T15:51:39.989Z,97588.75
2024-04-18T15:54:09.598Z,97585.22
2024-04-18T15:56:41.795Z,97593.28
2024-04-18T15:59:31.218Z,97596.69
2024-04-18T16:02:01.422Z,97596.50
2024-04-18T16:04:46.354Z,97593.19
2024-04-18T16:07:15.940Z,97598.59
2024-04-18T16:09:54.355Z,97609.59
2024-04-18T16:12:26.616Z,97603.53
2024-04-18T16:15:12.615Z,97604.66
2024-04-18T16:18:00.890Z,97613.22
2024-04-18T16:20:30.516Z,97609.66
2024-04-18T16:23:05.760Z,97617.69
2024-04-18T16:25:39.660Z,97622.25
2024-04-18T16:28:12.134Z,97614.53
2024-04-18T16:31:00.931Z,97614.00
2024-04-18T16:33:30.588Z,97620.78
2024-04-18T16:36:00.068Z,97611.47
2024-04-18T16:38:29.559Z,97613.38
2024-04-18T16:40:58.991Z,97608.06
2024-04-18T16:43:38.689Z,97608.25
2024-04-18T16:46:08.575Z,97612.59
2024-04-18T16:48:40.222Z,97626.28
2024-04-18T16:51:09.923Z,97622.03
2024-04-18T16:53:57.586Z,97632.75
2024-04-18T16:56:37.007Z,97631.97
2024-04-18T16:59:11.399Z,97630.34
2024-04-18T17:01:41.001Z,97629.25
2024-04-18T17:04:10.941Z,97644.09
2024-04-18T17:06:47.519Z,97638.59
2024-04-18T17:09:18.701Z,97635.84
2024-04-18T17:11:48.503Z,97639.16
2024-04-18T17:14:39.651Z,97642.31
2024-04-18T17:17:09.175Z,97646.31
2024-04-18T17:19:59.130Z,97657.59
2024-04-18T17:22:28.636Z,97658.00
2024-04-18T17:24:58.110Z,97668.28
2024-04-18T17:27:27.753Z,97664.19
2024-04-18T17:29:59.929Z,97662.78
2024-04-18T17:32:29.465Z,97661.41
2024-04-18T17:34:58.986Z,97671.03
2024-04-18T17:37:45.467Z,97668.31
2024-04-18T17:40:24.295Z,97677.56
2024-04-18T17:43:03.015Z,97672.44
2024-04-18T17:45:35.638Z,97682.28
2024-04-18T17:48:18.290Z,97680.78
2024-04-18T17:50:48.073Z,97694.13
2024-04-18T17:53:17.657Z,97703.81
2024-04-18T17:55:47.189Z,97705.22
2024-04-18T17:58:17.344Z,97716.16
2024-04-18T18:00:49.883Z,97715.44
2024-04-18T18:03:19.582Z,97720.44
2024-04-18T18:05:49.194Z,97724.00
2024-04-18T18:08:30.867Z,97726.88
2024-04-18T18:11:20.357Z,97727.69
2024-04-18T18:13:52.250Z,97723.84
2024-04-18T18:16:25.914Z,97725.66
2024-04-18T18:18:55.560Z,97720.22
2024-04-18T18:21:25.274Z,97722.41
2024-04-18T18:23:54.776Z,97725.72
2024-04-18T18:26:41.346Z,97728.00
2024-04-18T18:29:10.953Z,97733.84
2024-04-18T18:32:02.135Z,97732.69
2024-04-18T18:34:33.231Z,97738.19
2024-04-18T18:37:02.790Z,97740.09
2024-04-18T18:39:32.510Z,97748.03
2024-04-18T18:42:02.029Z,97749.69
2024-04-18T18:44:32.251Z,97758.34
2024-04-18T18:47:04.780Z,97759.47
2024-04-18T18:49:52.528Z,97769.38
2024-04-18T18:52:24.037Z,97768.06
2024-04-18T18:54:53.790Z,97776.66
2024-04-18T18:57:23.361Z,97770.44
2024-04-18T18:59:52.981Z,97777.88
2024-04-18T19:02:25.223Z,97784.47
2024-04-18T19:05:03.684Z,97789.72
2024-04-18T19:07:33.418Z,97795.63
2024-04-18T19:10:03.147Z,97792.91
2024-04-18T19:12:33.508Z,97787.19
2024-04-18T19:15:03.376Z,97798.84
2024-04-18T19:17:39.413Z,97794.50
2024-04-18T19:20:09.783Z,97795.91
2024-04-18T19:22:39.371Z,97797.31
2024-04-18T19:25:08.832Z,97802.75
2024-04-18T19:27:38.498Z,97801.63
2024-04-18T19:30:09.078Z,97793.19
2024-04-18T19:32:41.784Z,97787.72
2024-04-18T19:35:26.425Z,97801.56
2024-04-18T19:37:56.242Z,97797.84
2024-04-18T19:40:46.577Z,97807.00
2024-04-18T19:43:16.058Z,97817.03
2024-04-18T19:45:54.377Z,97817.59
2024-04-18T19:48:27.119Z,97817.16
2024-04-18T19:50:56.680Z,97830.44
2024-04-18T19:53:26.235Z,97825.59
2024-04-18T19:55:58.157Z,97830.00
2024-04-18T19:58:27.827Z,97836.03
2024-04-18T20:00:57.488Z,97836.66
2024-04-18T20:03:29.807Z,97838.94
2024-04-18T20:06:01.984Z,97835.78
2024-04-18T20:08:51.531Z,97844.03
2024-04-18T20:11:21.050Z,97840.28
2024-04-18T20:13:50.570Z,97850.97
2024-04-18T20:16:20.081Z,97844.31
2024-04-18T20:18:52.321Z,97845.44
2024-04-18T20:21:21.885Z,97843.59
2024-04-18T20:23:57.482Z,97844.50
2024-04-18T20:26:27.711Z,97836.94
2024-04-18T20:29:16.945Z,97835.66
2024-04-18T20:31:46.597Z,97844.06
2024-04-18T20:34:18.809Z,97846.03
2024-04-18T20:36:48.357Z,97834.97
2024-04-18T20:39:18.997Z,97839.84
2024-04-18T20:41:48.554Z,97838.50
2024-04-18T20:44:18.056Z,97842.59
2024-04-18T20:46:47.543Z,97839.38
2024-04-18T20:49:20.721Z,97839.97
2024-04-18T20:51:50.435Z,97837.00
2024-04-18T20:54:20.018Z,97836.78
2024-04-18T20:56:49.495Z,97844.38
2024-04-18T20:59:19.015Z,97849.28
2024-04-18T21:01:48.566Z,97855.75
2024-04-18T21:04:20.744Z,97852.56
2024-04-18T21:06:50.305Z,97854.72
2024-04-18T21:09:20.032Z,97849.91
2024-04-18T21:11:53.710Z,97852.91
2024-04-18T21:14:23.274Z,97850.47
2024-04-18T21:16:52.709Z,97847.22
2024-04-18T21:19:24.929Z,97849.44
2024-04-18T21:21:54.552Z,97843.22
2024-04-18T21:24:24.072Z,97845.38
2024-04-18T21:26:54.014Z,97848.41
2024-04-18T21:29:23.521Z,97839.75
2024-04-18T21:31:52.968Z,97847.31
2024-04-18T21:34:25.155Z,97847.63
2024-04-18T21:36:54.723Z,97849.53
2024-04-18T21:39:24.190Z,97857.63
2024-04-18T21:41:53.650Z,97865.75
2024-04-18T21:44:23.096Z,97860.91
2024-04-18T21:46:52.902Z,97850.09
2024-04-18T21:49:25.524Z,97846.88
2024-04-18T21:51:55.057Z,97847.66
2024-04-18T21:54:24.524Z,97843.63
2024-04-18T21:56:53.990Z,97849.03
2024-04-18T21:59:23.566Z,97847.44
2024-04-18T22:01:53.046Z,97845.81
2024-04-18T22:04:25.332Z,97842.59
2024-04-18T22:06:56.141Z,97846.38
2024-04-18T22:09:25.744Z,97845.56
2024-04-18T22:11:55.316Z,97841.25
2024-04-18T22:14:24.837Z,97836.13
2024-04-18T22:16:54.351Z,97841.53
2024-04-18T22:19:26.488Z,97846.94
2024-04-18T22:21:56.003Z,97845.34
2024-04-18T22:24:25.534Z,97842.09
2024-04-18T22:26:55.019Z,97840.50
2024-04-18T22:29:24.513Z,97844.31
2024-04-18T22:31:54.137Z,97842.66
2024-04-18T22:34:31.337Z,97847.28
2024-04-18T22:37:06.362Z,97844.88
2024-04-18T22:39:35.918Z,97843.22
2024-04-18T22:42:06.109Z,97843.22
2024-04-18T22:44:35.653Z,97840.81
2024-04-18T22:47:05.682Z,97852.41
2024-04-18T22:49:37.835Z,97849.97
2024-04-18T22:52:07.391Z,97854.59
2024-04-18T22:54:36.916Z,97852.19
2024-04-18T22:57:27.996Z,97847.56
2024-04-18T22:59:57.477Z,97853.25
2024-04-18T23:02:26.937Z,97847.03
2024-04-18T23:04:59.046Z,97849.22
2024-04-18T23:07:28.532Z,97847.31
2024-04-18T23:10:00.061Z,97836.78
2024-04-18T23:12:29.521Z,97839.50
2024-04-18T23:14:59.085Z,97843.28
2024-04-18T23:17:28.558Z,97842.47
2024-04-18T23:20:00.749Z,97844.41
2024-04-18T23:22:30.186Z,97847.38
2024-04-18T23:25:19.802Z,97843.84
2024-04-18T23:27:50.238Z,97844.69
2024-04-18T23:30:20.195Z,97837.63
2024-04-18T23:32:49.856Z,97838.44
2024-04-18T23:35:22.112Z,97839.53
2024-04-18T23:37:51.558Z,97843.31
2024-04-18T23:40:20.998Z,97839.00
2024-04-18T23:42:50.435Z,97834.41
2024-04-18T23:45:20.048Z,97830.38
2024-04-18T23:47:49.549Z,97829.28
2024-04-18T23:50:21.694Z,97830.38
2024-04-18T23:52:51.189Z,97824.97
2024-04-18T23:55:20.652Z,97816.34
2024-04-18T23:57:50.152Z,97819.88
